createdAt,value
2023-04-15T00:00:55.233Z,8.63
2023-04-15T00:01:55.295Z,8.63
2023-04-15T00:02:55.371Z,8.61
2023-04-15T00:03:55.323Z,8.63
2023-04-15T00:04:55.230Z,8.61
2023-04-15T00:05:55.157Z,8.58
2023-04-15T00:06:55.166Z,8.60
2023-04-15T00:07:55.124Z,8.60
2023-04-15T00:08:55.114Z,8.58
2023-04-15T00:09:55.170Z,8.58
2023-04-15T00:10:55.092Z,8.56
2023-04-15T00:11:55.083Z,8.55
2023-04-15T00:12:55.059Z,8.55
2023-04-15T00:13:55.045Z,8.53
2023-04-15T00:14:55.040Z,8.53
2023-04-15T00:15:55.024Z,8.53
2023-04-15T00:16:55.069Z,8.52
2023-04-15T00:17:55.078Z,8.51
2023-04-15T00:18:54.986Z,8.52
2023-04-15T00:19:54.964Z,8.52
2023-04-15T00:20:54.963Z,8.52
2023-04-15T00:21:54.947Z,8.51
2023-04-15T00:22:54.931Z,8.49
2023-04-15T00:23:54.914Z,8.49
2023-04-15T00:24:54.906Z,8.49
2023-04-15T00:25:54.887Z,8.49
2023-04-15T00:26:54.912Z,8.48
2023-04-15T00:27:54.855Z,8.48
2023-04-15T00:28:54.847Z,8.48
2023-04-15T00:29:54.831Z,8.48
2023-04-15T00:30:54.848Z,8.49
2023-04-15T00:31:54.830Z,8.46
2023-04-15T00:32:54.836Z,8.46
2023-04-15T00:33:54.780Z,8.44
2023-04-15T00:34:54.780Z,8.45
2023-04-15T00:35:54.767Z,8.44
2023-04-15T00:36:54.773Z,8.44
2023-04-15T00:37:54.735Z,8.44
2023-04-15T00:38:54.737Z,8.42
2023-04-15T00:39:54.724Z,8.41
2023-04-15T00:40:54.692Z,8.41
2023-04-15T00:41:54.685Z,8.42
2023-04-15T00:42:54.666Z,8.42
2023-04-15T00:43:54.657Z,8.41
2023-04-15T00:44:54.640Z,8.41
2023-04-15T00:45:54.634Z,8.38
2023-04-15T00:46:54.629Z,8.38
2023-04-15T00:47:54.630Z,8.38
2023-04-15T00:48:54.595Z,8.37
2023-04-15T00:49:54.577Z,8.37
2023-04-15T00:50:54.567Z,8.37
2023-04-15T00:51:54.557Z,8.34
2023-04-15T00:52:54.537Z,8.34
2023-04-15T00:53:54.532Z,8.34
2023-04-15T00:54:54.510Z,8.34
2023-04-15T00:55:54.498Z,8.34
2023-04-15T00:56:54.516Z,8.33
2023-04-15T00:57:54.472Z,8.33
2023-04-15T00:58:54.455Z,8.30
2023-04-15T00:59:54.455Z,8.31
2023-04-15T01:00:54.549Z,8.30
2023-04-15T01:01:54.518Z,8.30
2023-04-15T01:02:54.485Z,8.31
2023-04-15T01:03:54.436Z,8.28
2023-04-15T01:04:54.384Z,8.30
2023-04-15T01:05:54.366Z,8.28
2023-04-15T01:06:54.361Z,8.28
2023-04-15T01:07:54.346Z,8.28
2023-04-15T01:08:54.319Z,8.28
2023-04-15T01:09:54.314Z,8.28
2023-04-15T01:10:54.294Z,8.28
2023-04-15T01:11:54.297Z,8.27
2023-04-15T01:12:54.281Z,8.26
2023-04-15T01:13:54.255Z,8.26
2023-04-15T01:14:54.243Z,8.26
2023-04-15T01:15:54.268Z,8.27
2023-04-15T01:16:54.225Z,8.24
2023-04-15T01:17:54.277Z,8.24
2023-04-15T01:18:54.185Z,8.23
2023-04-15T01:19:54.180Z,8.23
2023-04-15T01:20:54.164Z,8.23
2023-04-15T01:21:54.164Z,8.19
2023-04-15T01:22:54.133Z,8.23
2023-04-15T01:23:54.132Z,8.20
2023-04-15T01:24:54.111Z,8.19
2023-04-15T01:25:54.090Z,8.19
2023-04-15T01:26:54.107Z,8.19
2023-04-15T01:27:54.078Z,8.19
2023-04-15T01:28:54.077Z,8.19
2023-04-15T01:29:54.051Z,8.18
2023-04-15T01:30:54.034Z,8.19
2023-04-15T01:31:54.061Z,8.19
2023-04-15T01:32:54.124Z,8.20
2023-04-15T01:33:54.029Z,8.16
2023-04-15T01:34:53.972Z,8.16
2023-04-15T01:35:53.969Z,8.18
2023-04-15T01:36:53.953Z,8.16
2023-04-15T01:37:53.959Z,8.16
2023-04-15T01:38:53.923Z,8.18
2023-04-15T01:39:53.918Z,8.15
2023-04-15T01:40:53.889Z,8.15
2023-04-15T01:41:53.886Z,8.15
2023-04-15T01:42:53.883Z,8.13
2023-04-15T01:43:53.858Z,8.13
2023-04-15T01:44:53.846Z,8.13
2023-04-15T01:45:53.834Z,8.12
2023-04-15T01:46:53.829Z,8.12
2023-04-15T01:47:53.852Z,8.12
2023-04-15T01:48:53.790Z,8.10
2023-04-15T01:49:53.782Z,8.10
2023-04-15T01:50:53.762Z,8.10
2023-04-15T01:51:53.753Z,8.09
2023-04-15T01:52:53.746Z,8.10
2023-04-15T01:53:53.738Z,8.08
2023-04-15T01:54:53.712Z,8.08
2023-04-15T01:55:53.704Z,8.09
2023-04-15T01:56:53.692Z,8.08
2023-04-15T01:57:53.681Z,8.05
2023-04-15T01:58:53.686Z,8.08
2023-04-15T01:59:53.649Z,8.06
2023-04-15T02:00:53.644Z,8.05
2023-04-15T02:01:53.675Z,8.06
2023-04-15T02:02:53.682Z,8.06
2023-04-15T02:03:53.662Z,8.05
2023-04-15T02:04:53.587Z,8.05
2023-04-15T02:05:53.593Z,8.05
2023-04-15T02:06:53.551Z,8.03
2023-04-15T02:07:53.554Z,8.01
2023-04-15T02:08:53.535Z,8.01
2023-04-15T02:09:53.518Z,8.01
2023-04-15T02:10:53.512Z,8.01
2023-04-15T02:11:53.509Z,8.01
2023-04-15T02:12:53.492Z,8.00
2023-04-15T02:13:53.484Z,8.01
2023-04-15T02:14:53.448Z,8.00
2023-04-15T02:15:53.443Z,7.97
2023-04-15T02:16:53.506Z,7.97
2023-04-15T02:17:53.454Z,7.98
2023-04-15T02:18:53.401Z,7.98
2023-04-15T02:19:53.389Z,7.95
2023-04-15T02:20:53.378Z,7.97
2023-04-15T02:21:53.361Z,7.95
2023-04-15T02:22:53.350Z,7.97
2023-04-15T02:23:54.151Z,7.97
2023-04-15T02:24:53.325Z,7.95
2023-04-15T02:25:54.339Z,7.97
2023-04-15T02:26:53.298Z,7.97
2023-04-15T02:27:53.290Z,7.95
2023-04-15T02:28:53.261Z,7.97
2023-04-15T02:29:53.257Z,7.97
2023-04-15T02:30:53.573Z,7.95
2023-04-15T02:31:53.270Z,7.93
2023-04-15T02:32:53.246Z,7.93
2023-04-15T02:33:53.202Z,7.94
2023-04-15T02:34:53.190Z,7.94
2023-04-15T02:35:53.193Z,7.94
2023-04-15T02:36:54.300Z,7.93
2023-04-15T02:37:53.159Z,7.93
2023-04-15T02:38:53.127Z,7.93
2023-04-15T02:39:53.126Z,7.91
2023-04-15T02:40:53.106Z,7.90
2023-04-15T02:41:53.101Z,7.90
2023-04-15T02:42:53.091Z,7.90
2023-04-15T02:43:53.073Z,7.88
2023-04-15T02:44:53.050Z,7.90
2023-04-15T02:45:53.094Z,7.88
2023-04-15T02:46:53.028Z,7.88
2023-04-15T02:47:53.192Z,7.88
2023-04-15T02:48:53.000Z,7.88
2023-04-15T02:49:52.987Z,7.87
2023-04-15T02:50:52.968Z,7.88
2023-04-15T02:51:52.956Z,7.87
2023-04-15T02:52:52.955Z,7.85
2023-04-15T02:53:52.968Z,7.85
2023-04-15T02:54:52.930Z,7.87
2023-04-15T02:55:52.973Z,7.85
2023-04-15T02:56:52.929Z,7.85
2023-04-15T02:57:52.959Z,7.85
2023-04-15T02:58:52.862Z,7.85
2023-04-15T02:59:52.853Z,7.83
2023-04-15T03:00:52.835Z,7.83
2023-04-15T03:01:52.938Z,7.82
2023-04-15T03:02:53.123Z,7.80
2023-04-15T03:03:52.886Z,7.83
2023-04-15T03:04:52.780Z,7.82
2023-04-15T03:05:52.772Z,7.82
2023-04-15T03:06:52.762Z,7.82
2023-04-15T03:07:52.760Z,7.82
2023-04-15T03:08:52.728Z,7.82
2023-04-15T03:09:52.720Z,7.82
2023-04-15T03:10:52.718Z,7.80
2023-04-15T03:11:52.694Z,7.80
2023-04-15T03:12:52.704Z,7.79
2023-04-15T03:13:52.667Z,7.79
2023-04-15T03:14:59.650Z,7.79
2023-04-15T03:15:59.684Z,7.80
2023-04-15T03:16:59.680Z,7.77
2023-04-15T03:18:01.343Z,7.79
2023-04-15T03:19:00.295Z,7.79
2023-04-15T03:20:00.212Z,7.79
2023-04-15T03:20:52.570Z,7.79
2023-04-15T03:21:52.561Z,7.77
2023-04-15T03:22:52.554Z,7.76
2023-04-15T03:23:52.553Z,7.79
2023-04-15T03:24:52.526Z,7.77
2023-04-15T03:25:52.523Z,7.76
2023-04-15T03:26:52.498Z,7.76
2023-04-15T03:27:52.499Z,7.75
2023-04-15T03:28:52.469Z,7.75
2023-04-15T03:29:52.470Z,7.75
2023-04-15T03:30:52.455Z,7.75
2023-04-15T03:31:52.442Z,7.72
2023-04-15T03:33:01.154Z,7.73
2023-04-15T03:33:52.408Z,7.75
2023-04-15T03:34:52.424Z,7.73
2023-04-15T03:35:52.382Z,7.75
2023-04-15T03:36:52.407Z,7.73
2023-04-15T03:37:52.404Z,7.72
2023-04-15T03:38:52.339Z,7.72
2023-04-15T03:39:52.328Z,7.73
2023-04-15T03:40:52.308Z,7.72
2023-04-15T03:41:52.303Z,7.72
2023-04-15T03:42:52.300Z,7.72
2023-04-15T03:43:52.275Z,7.70
2023-04-15T03:44:52.282Z,7.69
2023-04-15T03:45:52.248Z,7.72
2023-04-15T03:46:52.355Z,7.67
2023-04-15T03:47:52.251Z,7.70
2023-04-15T03:48:52.204Z,7.69
2023-04-15T03:49:52.217Z,7.69
2023-04-15T03:50:52.181Z,7.67
2023-04-15T03:51:53.516Z,7.66
2023-04-15T03:52:52.174Z,7.67
2023-04-15T03:53:52.146Z,7.66
2023-04-15T03:54:52.126Z,7.66
2023-04-15T03:55:52.119Z,7.66
2023-04-15T03:56:52.104Z,7.63
2023-04-15T03:57:52.109Z,7.63
2023-04-15T03:58:52.071Z,7.66
2023-04-15T03:59:52.068Z,7.61
2023-04-15T04:00:52.049Z,7.61
2023-04-15T04:01:52.124Z,7.60
2023-04-15T04:02:52.211Z,7.63
2023-04-15T04:03:52.146Z,7.63
2023-04-15T04:04:52.070Z,7.63
2023-04-15T04:05:52.108Z,7.61
2023-04-15T04:06:51.965Z,7.61
2023-04-15T04:07:51.971Z,7.60
2023-04-15T04:08:51.937Z,7.61
2023-04-15T04:09:51.932Z,7.60
2023-04-15T04:10:51.910Z,7.60
2023-04-15T04:11:51.913Z,7.58
2023-04-15T04:12:51.894Z,7.60
2023-04-15T04:13:51.879Z,7.60
2023-04-15T04:14:51.853Z,7.60
2023-04-15T04:15:51.910Z,7.58
2023-04-15T04:16:51.872Z,7.60
2023-04-15T04:17:51.866Z,7.57
2023-04-15T04:18:51.808Z,7.58
2023-04-15T04:19:51.800Z,7.58
2023-04-15T04:20:51.772Z,7.57
2023-04-15T04:21:51.790Z,7.58
2023-04-15T04:22:51.758Z,7.57
2023-04-15T04:23:51.744Z,7.56
2023-04-15T04:24:51.724Z,7.56
2023-04-15T04:25:51.720Z,7.57
2023-04-15T04:26:51.698Z,7.56
2023-04-15T04:27:51.706Z,7.56
2023-04-15T04:28:51.673Z,7.56
2023-04-15T04:29:51.666Z,7.56
2023-04-15T04:30:51.652Z,7.54
2023-04-15T04:31:51.664Z,7.56
2023-04-15T04:32:51.711Z,7.53
2023-04-15T04:33:51.615Z,7.54
2023-04-15T04:34:51.590Z,7.51
2023-04-15T04:35:51.585Z,7.53
2023-04-15T04:36:51.570Z,7.51
2023-04-15T04:37:51.571Z,7.51
2023-04-15T04:38:51.536Z,7.53
2023-04-15T04:39:51.536Z,7.53
2023-04-15T04:40:51.510Z,7.51
2023-04-15T04:41:51.504Z,7.51
2023-04-15T04:42:51.512Z,7.53
2023-04-15T04:43:51.479Z,7.54
2023-04-15T04:44:51.456Z,7.51
2023-04-15T04:45:51.490Z,7.50
2023-04-15T04:46:51.430Z,7.51
2023-04-15T04:47:51.481Z,7.50
2023-04-15T04:48:51.400Z,7.50
2023-04-15T04:49:51.404Z,7.50
2023-04-15T04:50:51.408Z,7.50
2023-04-15T04:51:51.376Z,7.50
2023-04-15T04:52:51.361Z,7.51
2023-04-15T04:53:51.342Z,7.51
2023-04-15T04:54:51.332Z,7.50
2023-04-15T04:55:51.310Z,7.50
2023-04-15T04:56:51.303Z,7.48
2023-04-15T04:57:51.290Z,7.50
2023-04-15T04:58:51.294Z,7.50
2023-04-15T04:59:51.266Z,7.48
2023-04-15T05:00:51.274Z,7.48
2023-04-15T05:01:51.298Z,7.53
2023-04-15T05:02:51.389Z,7.51
2023-04-15T05:03:51.279Z,7.50
2023-04-15T05:04:51.192Z,7.50
2023-04-15T05:05:51.178Z,7.51
2023-04-15T05:06:51.185Z,7.50
2023-04-15T05:07:51.173Z,7.50
2023-04-15T05:08:51.149Z,7.50
2023-04-15T05:09:51.142Z,7.50
2023-04-15T05:10:51.110Z,7.50
2023-04-15T05:11:51.102Z,7.50
2023-04-15T05:12:51.105Z,7.50
2023-04-15T05:13:51.071Z,7.50
2023-04-15T05:14:51.063Z,7.48
2023-04-15T05:15:51.093Z,7.48
2023-04-15T05:16:51.048Z,7.51
2023-04-15T05:17:51.135Z,7.50
2023-04-15T05:18:51.013Z,7.50
2023-04-15T05:19:50.999Z,7.51
2023-04-15T05:20:50.989Z,7.50
2023-04-15T05:21:50.970Z,7.51
2023-04-15T05:22:50.979Z,7.50
2023-04-15T05:23:50.946Z,7.48
2023-04-15T05:24:50.930Z,7.50
2023-04-15T05:25:50.908Z,7.48
2023-04-15T05:26:50.908Z,7.51
2023-04-15T05:27:50.902Z,7.51
2023-04-15T05:28:50.881Z,7.50
2023-04-15T05:29:50.882Z,7.50
2023-04-15T05:30:50.895Z,7.50
2023-04-15T05:31:50.841Z,7.53
2023-04-15T05:32:50.874Z,7.51
2023-04-15T05:33:50.813Z,7.51
2023-04-15T05:34:50.798Z,7.53
2023-04-15T05:35:50.782Z,7.53
2023-04-15T05:36:50.776Z,7.54
2023-04-15T05:37:50.810Z,7.54
2023-04-15T05:38:50.750Z,7.56
2023-04-15T05:39:50.739Z,7.54
2023-04-15T05:40:50.714Z,7.53
2023-04-15T05:41:50.707Z,7.54
2023-04-15T05:42:50.714Z,7.57
2023-04-15T05:43:50.684Z,7.57
2023-04-15T05:44:50.670Z,7.57
2023-04-15T05:45:50.677Z,7.56
2023-04-15T05:46:50.638Z,7.57
2023-04-15T05:47:50.769Z,7.57
2023-04-15T05:48:50.628Z,7.57
2023-04-15T05:49:50.604Z,7.57
2023-04-15T05:50:50.598Z,7.56
2023-04-15T05:51:50.577Z,7.57
2023-04-15T05:52:50.570Z,7.57
2023-04-15T05:53:50.557Z,7.58
2023-04-15T05:54:50.541Z,7.58
2023-04-15T05:55:50.512Z,7.57
2023-04-15T05:56:50.531Z,7.57
2023-04-15T05:57:50.506Z,7.58
2023-04-15T05:58:52.497Z,7.57
2023-04-15T05:59:50.493Z,7.57
2023-04-15T06:00:50.454Z,7.58
2023-04-15T06:01:50.478Z,7.57
2023-04-15T06:02:50.545Z,7.60
2023-04-15T06:03:50.504Z,7.58
2023-04-15T06:04:50.462Z,7.57
2023-04-15T06:05:50.390Z,7.58
2023-04-15T06:06:50.389Z,7.60
2023-04-15T06:07:50.363Z,7.58
2023-04-15T06:08:50.361Z,7.57
2023-04-15T06:09:50.334Z,7.57
2023-04-15T06:10:50.320Z,7.60
2023-04-15T06:11:50.314Z,7.58
2023-04-15T06:12:50.310Z,7.61
2023-04-15T06:13:50.296Z,7.60
2023-04-15T06:14:50.275Z,7.60
2023-04-15T06:15:50.268Z,7.66
2023-04-15T06:16:50.249Z,7.63
2023-04-15T06:17:50.281Z,7.66
2023-04-15T06:18:50.236Z,7.63
2023-04-15T06:19:50.207Z,7.66
2023-04-15T06:20:50.216Z,7.66
2023-04-15T06:21:50.177Z,7.66
2023-04-15T06:22:50.170Z,7.66
2023-04-15T06:23:50.164Z,7.66
2023-04-15T06:24:50.143Z,7.66
2023-04-15T06:25:50.124Z,7.66
2023-04-15T06:26:50.112Z,7.67
2023-04-15T06:27:50.101Z,7.67
2023-04-15T06:28:50.111Z,7.67
2023-04-15T06:29:50.076Z,7.67
2023-04-15T06:30:50.059Z,7.69
2023-04-15T06:31:50.068Z,7.67
2023-04-15T06:32:50.113Z,7.67
2023-04-15T06:33:50.028Z,7.67
2023-04-15T06:34:50.007Z,7.67
2023-04-15T06:35:49.990Z,7.69
2023-04-15T06:36:49.981Z,7.67
2023-04-15T06:37:49.968Z,7.67
2023-04-15T06:38:49.955Z,7.69
2023-04-15T06:39:49.938Z,7.67
2023-04-15T06:40:49.952Z,7.67
2023-04-15T06:41:49.916Z,7.69
2023-04-15T06:42:49.903Z,7.67
2023-04-15T06:43:49.895Z,7.69
2023-04-15T06:44:49.874Z,7.69
2023-04-15T06:45:49.886Z,7.69
2023-04-15T06:46:49.847Z,7.67
2023-04-15T06:47:49.875Z,7.67
2023-04-15T06:48:49.872Z,7.70
2023-04-15T06:49:49.804Z,7.70
2023-04-15T06:50:49.795Z,7.72
2023-04-15T06:51:49.796Z,7.70
2023-04-15T06:52:49.775Z,7.70
2023-04-15T06:53:49.755Z,7.70
2023-04-15T06:54:49.754Z,7.72
2023-04-15T06:55:49.732Z,7.70
2023-04-15T06:56:49.717Z,7.70
2023-04-15T06:57:49.707Z,7.72
2023-04-15T06:58:49.716Z,7.72
2023-04-15T06:59:49.692Z,7.72
2023-04-15T07:00:49.738Z,7.70
2023-04-15T07:01:49.680Z,7.72
2023-04-15T07:02:49.720Z,7.69
2023-04-15T07:03:49.666Z,7.72
2023-04-15T07:04:49.616Z,7.70
2023-04-15T07:05:49.594Z,7.72
2023-04-15T07:06:49.582Z,7.75
2023-04-15T07:07:49.566Z,7.75
2023-04-15T07:08:49.567Z,7.75
2023-04-15T07:09:49.544Z,7.75
2023-04-15T07:10:49.545Z,7.76
2023-04-15T07:11:49.512Z,7.77
2023-04-15T07:12:49.503Z,7.76
2023-04-15T07:13:49.500Z,7.76
2023-04-15T07:14:49.501Z,7.77
2023-04-15T07:15:49.453Z,7.77
2023-04-15T07:16:49.506Z,7.77
2023-04-15T07:17:49.452Z,7.79
2023-04-15T07:18:49.431Z,7.77
2023-04-15T07:19:49.409Z,7.80
2023-04-15T07:20:49.407Z,7.80
2023-04-15T07:21:49.427Z,7.82
2023-04-15T07:22:49.393Z,7.82
2023-04-15T07:23:49.361Z,7.83
2023-04-15T07:24:49.348Z,7.83
2023-04-15T07:25:49.336Z,7.80
2023-04-15T07:26:49.329Z,7.85
2023-04-15T07:27:49.298Z,7.85
2023-04-15T07:28:49.307Z,7.87
2023-04-15T07:29:49.289Z,7.83
2023-04-15T07:30:49.307Z,7.85
2023-04-15T07:31:49.263Z,7.87
2023-04-15T07:32:49.319Z,7.85
2023-04-15T07:33:49.230Z,7.88
2023-04-15T07:34:49.214Z,7.90
2023-04-15T07:35:49.198Z,7.87
2023-04-15T07:36:49.188Z,7.88
2023-04-15T07:37:49.181Z,7.90
2023-04-15T07:38:49.169Z,7.91
2023-04-15T07:39:49.155Z,7.88
2023-04-15T07:40:49.142Z,7.91
2023-04-15T07:41:49.136Z,7.93
2023-04-15T07:42:49.120Z,7.93
2023-04-15T07:43:49.108Z,7.93
2023-04-15T07:44:49.094Z,7.94
2023-04-15T07:45:49.104Z,7.97
2023-04-15T07:46:49.070Z,7.98
2023-04-15T07:47:49.111Z,8.00
2023-04-15T07:48:49.041Z,8.00
2023-04-15T07:49:49.019Z,8.00
2023-04-15T07:50:49.012Z,8.03
2023-04-15T07:51:49.058Z,8.03
2023-04-15T07:52:49.009Z,8.06
2023-04-15T07:53:48.995Z,8.08
2023-04-15T07:54:48.992Z,8.10
2023-04-15T07:55:48.944Z,8.10
2023-04-15T07:56:48.931Z,8.10
2023-04-15T07:57:48.939Z,8.13
2023-04-15T07:58:48.906Z,8.15
2023-04-15T07:59:48.898Z,8.18
2023-04-15T08:00:48.876Z,8.20
2023-04-15T08:01:48.902Z,8.20
2023-04-15T08:02:49.013Z,8.20
2023-04-15T08:03:48.990Z,8.23
2023-04-15T08:04:48.988Z,8.20
2023-04-15T08:05:48.816Z,8.23
2023-04-15T08:06:48.826Z,8.26
2023-04-15T08:07:48.801Z,8.26
2023-04-15T08:08:48.800Z,8.26
2023-04-15T08:09:48.757Z,8.27
2023-04-15T08:10:50.266Z,8.27
2023-04-15T08:11:48.753Z,8.30
2023-04-15T08:12:48.750Z,8.28
2023-04-15T08:13:48.704Z,8.30
2023-04-15T08:14:48.708Z,8.28
2023-04-15T08:15:48.713Z,8.30
2023-04-15T08:16:48.677Z,8.30
2023-04-15T08:17:48.679Z,8.31
2023-04-15T08:18:48.740Z,8.34
2023-04-15T08:19:48.629Z,8.34
2023-04-15T08:20:48.616Z,8.37
2023-04-15T08:21:48.623Z,8.37
2023-04-15T08:22:48.623Z,8.38
2023-04-15T08:23:48.577Z,8.37
2023-04-15T08:24:48.571Z,8.41
2023-04-15T08:25:48.542Z,8.41
2023-04-15T08:26:48.534Z,8.41
2023-04-15T08:27:48.524Z,8.42
2023-04-15T08:28:48.517Z,8.44
2023-04-15T08:29:48.513Z,8.45
2023-04-15T08:30:48.481Z,8.48
2023-04-15T08:31:48.594Z,8.48
2023-04-15T08:32:48.543Z,8.46
2023-04-15T08:33:48.462Z,8.49
2023-04-15T08:34:48.430Z,8.51
2023-04-15T08:35:48.418Z,8.51
2023-04-15T08:36:48.412Z,8.52
2023-04-15T08:37:48.390Z,8.52
2023-04-15T08:38:48.461Z,8.55
2023-04-15T08:39:48.359Z,8.55
2023-04-15T08:40:48.362Z,8.55
2023-04-15T08:41:48.350Z,8.56
2023-04-15T08:42:48.357Z,8.60
2023-04-15T08:43:48.310Z,8.60
2023-04-15T08:44:48.305Z,8.60
2023-04-15T08:45:48.295Z,8.61
2023-04-15T08:46:48.325Z,8.60
2023-04-15T08:47:48.324Z,8.61
2023-04-15T08:48:48.287Z,8.63
2023-04-15T08:49:48.231Z,8.64
2023-04-15T08:50:48.220Z,8.64
2023-04-15T08:51:48.211Z,8.66
2023-04-15T08:52:48.192Z,8.67
2023-04-15T08:53:48.195Z,8.67
2023-04-15T08:54:48.173Z,8.69
2023-04-15T08:55:48.151Z,8.70
2023-04-15T08:56:48.180Z,8.70
2023-04-15T08:57:48.123Z,8.71
2023-04-15T08:58:48.158Z,8.73
2023-04-15T08:59:48.145Z,8.74
2023-04-15T09:00:48.106Z,8.76
2023-04-15T09:01:48.112Z,8.79
2023-04-15T09:02:48.171Z,8.79
2023-04-15T09:03:48.129Z,8.79
2023-04-15T09:04:48.054Z,8.84
2023-04-15T09:05:48.021Z,8.84
2023-04-15T09:06:48.014Z,8.84
2023-04-15T09:07:48.027Z,8.88
2023-04-15T09:08:47.982Z,8.87
2023-04-15T09:09:47.979Z,8.88
2023-04-15T09:10:47.956Z,8.88
2023-04-15T09:11:47.953Z,8.91
2023-04-15T09:12:47.937Z,8.92
2023-04-15T09:13:47.922Z,8.92
2023-04-15T09:14:47.906Z,8.94
2023-04-15T09:15:47.900Z,8.97
2023-04-15T09:16:49.923Z,8.99
2023-04-15T09:17:47.902Z,8.99
2023-04-15T09:18:47.860Z,9.00
2023-04-15T09:19:47.843Z,9.00
2023-04-15T09:20:47.924Z,9.03
2023-04-15T09:21:47.831Z,9.03
2023-04-15T09:22:47.819Z,9.03
2023-04-15T09:23:47.893Z,9.04
2023-04-15T09:24:47.947Z,9.04
2023-04-15T09:25:47.774Z,9.06
2023-04-15T09:26:47.745Z,9.06
2023-04-15T09:27:47.753Z,9.10
2023-04-15T09:28:47.733Z,9.11
2023-04-15T09:29:47.716Z,9.13
2023-04-15T09:30:49.194Z,9.18
2023-04-15T09:31:47.684Z,9.18
2023-04-15T09:32:47.728Z,9.22
2023-04-15T09:34:57.636Z,9.28
2023-04-15T09:35:57.600Z,9.29
2023-04-15T09:36:57.599Z,9.31
2023-04-15T09:37:57.586Z,9.34
2023-04-15T09:38:57.591Z,9.32
2023-04-15T09:39:57.545Z,9.37
2023-04-15T09:40:57.537Z,9.40
2023-04-15T09:41:57.537Z,9.46
2023-04-15T09:42:57.543Z,9.46
2023-04-15T09:43:57.615Z,9.47
2023-04-15T09:44:57.512Z,9.48
2023-04-15T09:45:57.568Z,9.50
2023-04-15T09:46:57.470Z,9.50
2023-04-15T09:47:58.992Z,9.51
2023-04-15T09:48:57.431Z,9.50
2023-04-15T09:49:57.487Z,9.50
2023-04-15T09:50:57.434Z,9.50
2023-04-15T09:52:05.117Z,9.51
2023-04-15T09:52:58.394Z,9.54
2023-04-15T09:53:57.373Z,9.54
2023-04-15T09:54:57.365Z,9.55
2023-04-15T09:55:57.376Z,9.55
2023-04-15T09:56:57.353Z,9.54
2023-04-15T09:57:57.345Z,9.54
2023-04-15T09:58:57.315Z,9.54
2023-04-15T09:59:57.339Z,9.55
2023-04-15T10:00:57.396Z,9.56
2023-04-15T10:01:57.344Z,9.54
2023-04-15T10:02:57.398Z,9.55
2023-04-15T10:03:58.024Z,9.56
2023-04-15T10:04:57.237Z,9.55
2023-04-15T10:05:57.265Z,9.56
2023-04-15T10:06:57.229Z,9.58
2023-04-15T10:07:57.242Z,9.58
2023-04-15T10:08:57.186Z,9.58
2023-04-15T10:09:57.167Z,9.59
2023-04-15T10:10:57.153Z,9.59
2023-04-15T10:11:57.143Z,9.61
2023-04-15T10:12:57.147Z,9.61
2023-04-15T10:13:57.114Z,9.64
2023-04-15T10:14:57.104Z,9.64
2023-04-15T10:15:57.167Z,9.65
2023-04-15T10:16:57.091Z,9.64
2023-04-15T10:17:57.128Z,9.65
2023-04-15T10:18:57.050Z,9.65
2023-04-15T10:19:57.104Z,9.65
2023-04-15T10:20:57.026Z,9.68
2023-04-15T10:21:57.008Z,9.68
2023-04-15T10:22:57.062Z,9.72
2023-04-15T10:23:57.104Z,9.76
2023-04-15T10:24:56.996Z,9.76
2023-04-15T10:25:56.967Z,9.76
2023-04-15T10:26:56.948Z,9.77
2023-04-15T10:27:56.934Z,9.80
2023-04-15T10:28:57.286Z,9.82
2023-04-15T10:29:56.912Z,9.82
2023-04-15T10:30:56.924Z,9.86
2023-04-15T10:31:56.890Z,9.89
2023-04-15T10:32:57.006Z,9.97
2023-04-15T10:33:56.856Z,9.99
2023-04-15T10:34:56.849Z,9.99
2023-04-15T10:35:56.863Z,10.01
2023-04-15T10:36:56.828Z,10.05
2023-04-15T10:37:56.805Z,10.04
2023-04-15T10:38:56.787Z,10.07
2023-04-15T10:39:56.771Z,10.05
2023-04-15T10:40:56.770Z,10.07
2023-04-15T10:41:56.741Z,10.05
2023-04-15T10:42:56.749Z,10.05
2023-04-15T10:43:56.741Z,10.05
2023-04-15T10:44:56.716Z,10.05
2023-04-15T10:45:56.697Z,10.05
2023-04-15T10:46:56.782Z,10.04
2023-04-15T10:47:56.748Z,10.04
2023-04-15T10:48:56.656Z,10.04
2023-04-15T10:49:56.634Z,10.05
2023-04-15T10:50:56.631Z,10.05
2023-04-15T10:51:56.607Z,10.07
2023-04-15T10:52:56.621Z,10.07
2023-04-15T10:53:56.579Z,10.07
2023-04-15T10:54:56.571Z,10.09
2023-04-15T10:55:56.558Z,10.10
2023-04-15T10:56:56.545Z,10.12
2023-04-15T10:57:56.554Z,10.12
2023-04-15T10:58:56.540Z,10.12
2023-04-15T10:59:56.519Z,10.13
2023-04-15T11:00:56.507Z,10.12
2023-04-15T11:01:56.959Z,10.12
2023-04-15T11:02:56.666Z,10.10
2023-04-15T11:03:56.623Z,10.10
2023-04-15T11:04:56.652Z,10.13
2023-04-15T11:05:56.434Z,10.15
2023-04-15T11:06:56.449Z,10.13
2023-04-15T11:07:56.486Z,10.15
2023-04-15T11:08:56.405Z,10.13
2023-04-15T11:09:56.455Z,10.16
2023-04-15T11:10:56.355Z,10.16
2023-04-15T11:11:56.342Z,10.15
2023-04-15T11:12:56.337Z,10.16
2023-04-15T11:13:56.344Z,10.16
2023-04-15T11:14:56.306Z,10.15
2023-04-15T11:15:56.307Z,10.16
2023-04-15T11:16:56.284Z,10.16
2023-04-15T11:17:56.307Z,10.16
2023-04-15T11:18:56.271Z,10.15
2023-04-15T11:19:56.234Z,10.16
2023-04-15T11:20:56.227Z,10.19
2023-04-15T11:21:56.211Z,10.17
2023-04-15T11:23:13.041Z,10.17
2023-04-15T11:23:57.194Z,10.17
2023-04-15T11:24:56.174Z,10.17
2023-04-15T11:25:56.182Z,10.17
2023-04-15T11:26:56.169Z,10.19
2023-04-15T11:27:56.134Z,10.19
2023-04-15T11:28:56.139Z,10.19
2023-04-15T11:29:56.192Z,10.19
2023-04-15T11:30:56.155Z,10.19
2023-04-15T11:31:56.104Z,10.19
2023-04-15T11:32:56.145Z,10.20
2023-04-15T11:33:56.068Z,10.20
2023-04-15T11:34:56.044Z,10.20
2023-04-15T11:35:56.041Z,10.22
2023-04-15T11:36:56.021Z,10.22
2023-04-15T11:37:55.998Z,10.22
2023-04-15T11:38:56.040Z,10.22
2023-04-15T11:39:55.974Z,10.23
2023-04-15T11:40:55.983Z,10.25
2023-04-15T11:41:55.957Z,10.26
2023-04-15T11:42:55.949Z,10.26
2023-04-15T11:43:55.937Z,10.28
2023-04-15T11:44:55.934Z,10.28
2023-04-15T11:45:55.952Z,10.30
2023-04-15T11:46:55.910Z,10.30
2023-04-15T11:47:55.906Z,10.31
2023-04-15T11:48:55.883Z,10.31
2023-04-15T11:49:55.847Z,10.34
2023-04-15T11:50:55.859Z,10.34
2023-04-15T11:51:55.821Z,10.35
2023-04-15T11:52:55.832Z,10.35
2023-04-15T11:53:55.812Z,10.38
2023-04-15T11:54:55.788Z,10.41
2023-04-15T11:55:55.778Z,10.38
2023-04-15T11:56:55.760Z,10.42
2023-04-15T11:57:55.763Z,10.44
2023-04-15T11:58:55.737Z,10.44
2023-04-15T11:59:55.714Z,10.46
2023-04-15T12:00:55.701Z,10.46
2023-04-15T12:01:55.764Z,10.46
2023-04-15T12:02:55.822Z,10.46
2023-04-15T12:03:55.735Z,10.49
2023-04-15T12:04:55.675Z,10.48
2023-04-15T12:05:55.633Z,10.49
2023-04-15T12:06:55.626Z,10.48
2023-04-15T12:07:55.607Z,10.48
2023-04-15T12:08:55.625Z,10.48
2023-04-15T12:09:55.589Z,10.51
2023-04-15T12:10:55.570Z,10.49
2023-04-15T12:11:55.575Z,10.54
2023-04-15T12:12:55.549Z,10.56
2023-04-15T12:13:55.544Z,10.57
2023-04-15T12:14:55.528Z,10.61
2023-04-15T12:15:55.553Z,10.59
2023-04-15T12:16:58.015Z,10.63
2023-04-15T12:17:55.517Z,10.64
2023-04-15T12:18:55.482Z,10.67
2023-04-15T12:19:55.448Z,10.69
2023-04-15T12:20:55.449Z,10.71
2023-04-15T12:21:55.453Z,10.72
2023-04-15T12:22:55.422Z,10.74
2023-04-15T12:23:55.406Z,10.79
2023-04-15T12:24:55.402Z,10.78
2023-04-15T12:25:55.384Z,10.82
2023-04-15T12:26:55.369Z,10.86
2023-04-15T12:27:55.364Z,10.90
2023-04-15T12:28:55.359Z,10.92
2023-04-15T12:29:55.339Z,10.93
2023-04-15T12:30:55.356Z,10.99
2023-04-15T12:31:55.317Z,10.99
2023-04-15T12:32:55.294Z,10.99
2023-04-15T12:33:55.286Z,11.04
2023-04-15T12:34:55.294Z,11.05
2023-04-15T12:35:55.251Z,11.08
2023-04-15T12:36:55.237Z,11.08
2023-04-15T12:37:55.236Z,11.08
2023-04-15T12:38:55.234Z,11.11
2023-04-15T12:39:55.199Z,11.11
2023-04-15T12:40:55.195Z,11.14
2023-04-15T12:41:55.180Z,11.14
2023-04-15T12:42:55.181Z,11.18
2023-04-15T12:43:55.175Z,11.19
2023-04-15T12:44:55.134Z,11.19
2023-04-15T12:45:55.131Z,11.25
2023-04-15T12:46:55.286Z,11.26
2023-04-15T12:47:55.137Z,11.29
2023-04-15T12:49:03.624Z,11.32
2023-04-15T12:50:02.647Z,11.33
2023-04-15T12:51:05.101Z,11.36
2023-04-15T12:51:55.058Z,11.40
2023-04-15T12:53:03.735Z,11.40
2023-04-15T12:54:04.177Z,11.41
2023-04-15T12:56:11.909Z,11.51
2023-04-15T12:57:19.393Z,11.50
2023-04-15T12:58:21.558Z,11.55
2023-04-15T12:59:11.848Z,11.55
2023-04-15T13:00:11.849Z,11.62
2023-04-15T13:01:19.393Z,11.62
2023-04-15T13:02:11.881Z,11.65
2023-04-15T13:03:20.592Z,11.70
2023-04-15T13:04:19.418Z,11.75
2023-04-15T13:05:20.288Z,11.77
2023-04-15T13:06:11.773Z,11.78
2023-04-15T13:07:11.727Z,11.81
2023-04-15T13:08:21.465Z,11.84
2023-04-15T13:09:19.242Z,11.88
2023-04-15T13:10:11.724Z,11.90
2023-04-15T13:11:11.689Z,11.94
2023-04-15T13:12:11.680Z,11.95
2023-04-15T13:13:11.698Z,11.99
2023-04-15T13:14:11.721Z,12.02
2023-04-15T13:15:11.643Z,12.04
2023-04-15T13:16:11.642Z,12.04